SLSA/SBL METAR and TAF weather

Enter ICAO airport designator
Station Type Date Time Source
SLSA METAR 2019/10/15 19:00 UTC NOAA

SLSA 151900Z 13007KT 5000 VCSH FU SCT017 FEW023CB BKN080 28/24 Q1010


Station Type Date Time Source
SLSA Decoded METAR 2019/10/15 19:00 UTC NOAA

Santa Ana, Bolivia (SLSA) 13-46S 065-26W
Oct 15, 2019 - 03:00 PM EDT / 2019.10.15 1900 UTC
Wind: from the SE (130 degrees) at 8 MPH (7 KT):0
Visibility: 3 mile(s):0
Sky conditions: mostly cloudy
Weather: showers in the vicinity; smoke; Cumulonimbus clouds observed
Temperature: 82 F (28 C)
Dew Point: 75 F (24 C)
Relative Humidity: 78%
Pressure (altimeter): 29.83 in. Hg (1010 hPa)
ob: SLSA 151900Z 13007KT 5000 VCSH FU SCT017 FEW023CB BKN080 28/24 Q1010
cycle: 19

Station Type Date Time Source
SLSA TAF 2009/01/07 11:00 UTC NOAA

METAR SLSA 071100Z 00000KT 9999 FEW020 BKN080 26/24 Q1009

Example: see airport list